createdAt,value
2019-06-20T00:00:04.202Z,20.80
2019-06-20T00:01:04.846Z,20.80
2019-06-20T00:02:04.846Z,20.80
2019-06-20T00:03:04.410Z,20.80
2019-06-20T00:04:04.638Z,20.80
2019-06-20T00:05:05.055Z,20.80
2019-06-20T00:06:04.352Z,20.80
2019-06-20T00:07:04.487Z,20.70
2019-06-20T00:08:04.659Z,20.70
2019-06-20T00:09:05.063Z,20.70
2019-06-20T00:10:04.338Z,20.70
2019-06-20T00:11:04.356Z,20.70
2019-06-20T00:12:05.011Z,20.60
2019-06-20T00:13:05.079Z,20.60
2019-06-20T00:14:04.322Z,20.60
2019-06-20T00:15:04.527Z,20.60
2019-06-20T00:16:05.070Z,20.60
2019-06-20T00:17:04.307Z,20.60
2019-06-20T00:18:04.733Z,20.60
2019-06-20T00:19:05.007Z,20.60
2019-06-20T00:20:05.067Z,20.50
2019-06-20T00:21:05.082Z,20.50
2019-06-20T00:22:04.225Z,20.50
2019-06-20T00:23:04.413Z,20.50
2019-06-20T00:24:05.154Z,20.50
2019-06-20T00:25:04.364Z,20.50
2019-06-20T00:26:04.461Z,20.50
2019-06-20T00:27:05.118Z,20.50
2019-06-20T00:28:04.274Z,20.50
2019-06-20T00:29:04.631Z,20.50
2019-06-20T00:30:04.652Z,20.60
2019-06-20T00:31:04.912Z,20.50
2019-06-20T00:32:04.508Z,20.60
2019-06-20T00:33:04.280Z,20.60
2019-06-20T00:34:04.805Z,20.60
2019-06-20T00:35:04.854Z,20.60
2019-06-20T00:36:04.268Z,20.60
2019-06-20T00:37:05.506Z,20.60
2019-06-20T00:38:04.926Z,20.60
2019-06-20T00:39:05.162Z,20.60
2019-06-20T00:40:04.747Z,20.60
2019-06-20T00:41:04.607Z,20.60
2019-06-20T00:42:04.727Z,20.60
2019-06-20T00:43:16.686Z,20.60
2019-06-20T00:44:04.781Z,20.60
2019-06-20T00:45:04.539Z,20.60
2019-06-20T00:46:05.007Z,20.60
2019-06-20T00:47:05.048Z,20.50
2019-06-20T00:48:04.234Z,20.50
2019-06-20T00:49:04.946Z,20.50
2019-06-20T00:50:05.190Z,20.50
2019-06-20T00:51:04.327Z,20.50
2019-06-20T00:52:04.416Z,20.50
2019-06-20T00:53:04.526Z,20.50
2019-06-20T00:54:05.151Z,20.50
2019-06-20T00:55:04.274Z,20.50
2019-06-20T00:56:04.683Z,20.50
2019-06-20T00:57:04.753Z,20.40
2019-06-20T00:58:05.137Z,20.40
2019-06-20T00:59:05.139Z,20.40
2019-06-20T01:00:05.243Z,20.40
2019-06-20T01:01:04.337Z,20.40
2019-06-20T01:02:04.481Z,20.40
2019-06-20T01:03:05.045Z,20.30
2019-06-20T01:04:05.252Z,20.30
2019-06-20T01:05:04.356Z,20.30
2019-06-20T01:06:04.543Z,20.30
2019-06-20T01:07:04.792Z,20.30
2019-06-20T01:08:04.910Z,20.30
2019-06-20T01:09:05.201Z,20.30
2019-06-20T01:10:04.253Z,20.30
2019-06-20T01:11:04.937Z,20.20
2019-06-20T01:12:04.436Z,20.20
2019-06-20T01:13:04.903Z,20.20
2019-06-20T01:14:05.283Z,20.20
2019-06-20T01:15:04.395Z,20.20
2019-06-20T01:16:04.617Z,20.20
2019-06-20T01:17:04.708Z,20.20
2019-06-20T01:18:04.553Z,20.20
2019-06-20T01:19:04.602Z,20.20
2019-06-20T01:20:05.237Z,20.20
2019-06-20T01:21:04.341Z,20.20
2019-06-20T01:22:04.414Z,20.20
2019-06-20T01:23:04.580Z,20.20
2019-06-20T01:24:04.748Z,20.20
2019-06-20T01:25:04.507Z,20.20
2019-06-20T01:26:04.676Z,20.20
2019-06-20T01:27:04.763Z,20.20
2019-06-20T01:28:04.965Z,20.20
2019-06-20T01:29:05.213Z,20.20
2019-06-20T01:30:04.290Z,20.20
2019-06-20T01:31:04.893Z,20.20
2019-06-20T01:32:04.406Z,20.10
2019-06-20T01:33:04.688Z,20.10
2019-06-20T01:34:05.109Z,20.10
2019-06-20T01:35:04.185Z,20.10
2019-06-20T01:36:04.725Z,20.10
2019-06-20T01:37:04.416Z,20.00
2019-06-20T01:38:04.741Z,20.00
2019-06-20T01:39:04.340Z,20.00
2019-06-20T01:40:04.585Z,20.00
2019-06-20T01:41:06.105Z,20.00
2019-06-20T01:42:05.094Z,19.90
2019-06-20T01:43:04.539Z,19.90
2019-06-20T01:44:04.917Z,19.90
2019-06-20T01:45:05.056Z,19.90
2019-06-20T01:46:04.507Z,19.80
2019-06-20T01:47:04.855Z,19.80
2019-06-20T01:48:05.104Z,19.80
2019-06-20T01:49:05.222Z,19.80
2019-06-20T01:50:04.228Z,19.80
2019-06-20T01:51:04.386Z,19.70
2019-06-20T01:52:04.398Z,19.70
2019-06-20T01:53:04.918Z,19.70
2019-06-20T01:54:04.612Z,19.70
2019-06-20T01:55:10.022Z,19.70
2019-06-20T01:56:04.531Z,19.70
2019-06-20T01:57:04.438Z,19.70
2019-06-20T01:58:04.696Z,19.70
2019-06-20T01:59:04.579Z,19.60
2019-06-20T02:00:04.953Z,19.60
2019-06-20T02:01:04.846Z,19.60
2019-06-20T02:02:04.193Z,19.60
2019-06-20T02:03:04.611Z,19.60
2019-06-20T02:04:05.157Z,19.50
2019-06-20T02:05:04.225Z,19.50
2019-06-20T02:06:04.844Z,19.50
2019-06-20T02:07:04.524Z,19.40
2019-06-20T02:08:04.743Z,19.40
2019-06-20T02:09:04.939Z,19.40
2019-06-20T02:10:04.515Z,19.30
2019-06-20T02:11:04.906Z,19.30
2019-06-20T02:12:05.161Z,19.30
2019-06-20T02:13:04.398Z,19.30
2019-06-20T02:14:07.428Z,19.30
2019-06-20T02:15:04.457Z,19.30
2019-06-20T02:16:04.904Z,19.30
2019-06-20T02:17:05.203Z,19.30
2019-06-20T02:18:04.364Z,19.20
2019-06-20T02:19:04.504Z,19.20
2019-06-20T02:20:04.510Z,19.20
2019-06-20T02:21:05.145Z,19.20
2019-06-20T02:22:04.443Z,19.20
2019-06-20T02:23:04.481Z,19.20
2019-06-20T02:24:05.147Z,19.20
2019-06-20T02:25:04.359Z,19.20
2019-06-20T02:26:04.921Z,19.20
2019-06-20T02:27:05.149Z,19.20
2019-06-20T02:28:04.343Z,19.20
2019-06-20T02:29:04.850Z,19.20
2019-06-20T02:30:05.033Z,19.20
2019-06-20T02:31:05.166Z,19.20
2019-06-20T02:32:04.244Z,19.20
2019-06-20T02:33:04.961Z,19.20
2019-06-20T02:34:04.484Z,19.20
2019-06-20T02:35:04.626Z,19.10
2019-06-20T02:36:04.974Z,19.10
2019-06-20T02:37:04.411Z,19.10
2019-06-20T02:38:04.889Z,19.10
2019-06-20T02:39:05.026Z,19.10
2019-06-20T02:40:04.336Z,19.10
2019-06-20T02:41:04.850Z,19.10
2019-06-20T02:42:04.935Z,19.10
2019-06-20T02:43:05.091Z,19.10
2019-06-20T02:44:04.342Z,19.10
2019-06-20T02:45:10.102Z,19.10
2019-06-20T02:46:04.585Z,19.20
2019-06-20T02:47:04.241Z,19.10
2019-06-20T02:48:04.866Z,19.10
2019-06-20T02:49:05.032Z,19.10
2019-06-20T02:50:05.315Z,19.20
2019-06-20T02:51:04.337Z,19.20
2019-06-20T02:52:04.874Z,19.20
2019-06-20T02:53:05.141Z,19.20
2019-06-20T02:54:04.276Z,19.20
2019-06-20T02:55:04.866Z,19.20
2019-06-20T02:56:04.639Z,19.20
2019-06-20T02:57:04.851Z,19.20
2019-06-20T02:58:04.190Z,19.20
2019-06-20T02:59:04.417Z,19.20
2019-06-20T03:00:04.239Z,19.20
2019-06-20T03:01:04.907Z,19.20
2019-06-20T03:02:04.485Z,19.20
2019-06-20T03:03:04.733Z,19.20
2019-06-20T03:04:04.272Z,19.20
2019-06-20T03:05:04.912Z,19.20
2019-06-20T03:06:05.045Z,19.20
2019-06-20T03:07:04.223Z,19.20
2019-06-20T03:08:04.500Z,19.20
2019-06-20T03:09:04.563Z,19.10
2019-06-20T03:10:05.145Z,19.10
2019-06-20T03:11:04.374Z,19.10
2019-06-20T03:12:04.625Z,19.00
2019-06-20T03:13:04.698Z,19.00
2019-06-20T03:14:04.515Z,19.00
2019-06-20T03:15:05.246Z,19.00
2019-06-20T03:16:04.531Z,18.90
2019-06-20T03:17:05.187Z,18.90
2019-06-20T03:18:04.330Z,18.90
2019-06-20T03:19:04.386Z,18.90
2019-06-20T03:20:04.880Z,18.80
2019-06-20T03:21:04.478Z,18.80
2019-06-20T03:22:04.595Z,18.80
2019-06-20T03:23:04.494Z,18.80
2019-06-20T03:24:04.452Z,18.80
2019-06-20T03:25:04.612Z,18.80
2019-06-20T03:26:04.699Z,18.80
2019-06-20T03:27:04.881Z,18.80
2019-06-20T03:28:04.357Z,18.80
2019-06-20T03:29:04.825Z,18.80
2019-06-20T03:30:04.941Z,18.80
2019-06-20T03:31:05.115Z,18.80
2019-06-20T03:32:04.344Z,18.80
2019-06-20T03:33:04.460Z,18.80
2019-06-20T03:34:05.037Z,18.80
2019-06-20T03:35:05.144Z,18.80
2019-06-20T03:36:04.214Z,18.80
2019-06-20T03:37:04.407Z,18.80
2019-06-20T03:38:04.840Z,18.80
2019-06-20T03:39:04.215Z,18.80
2019-06-20T03:40:04.964Z,18.80
2019-06-20T03:41:05.199Z,18.90
2019-06-20T03:42:04.426Z,18.90
2019-06-20T03:43:04.269Z,18.80
2019-06-20T03:44:04.480Z,18.80
2019-06-20T03:45:04.430Z,18.80
2019-06-20T03:46:04.540Z,18.80
2019-06-20T03:47:04.616Z,18.90
2019-06-20T03:48:05.053Z,18.80
2019-06-20T03:49:04.311Z,18.80
2019-06-20T03:50:05.147Z,18.80
2019-06-20T03:51:05.142Z,18.80
2019-06-20T03:52:04.277Z,18.80
2019-06-20T03:53:04.875Z,18.70
2019-06-20T03:54:04.580Z,18.70
2019-06-20T03:55:05.142Z,18.70
2019-06-20T03:56:04.213Z,18.70
2019-06-20T03:57:04.865Z,18.70
2019-06-20T03:58:04.933Z,18.70
2019-06-20T03:59:04.213Z,18.70
2019-06-20T04:00:04.520Z,18.70
2019-06-20T04:01:04.678Z,18.70
2019-06-20T04:02:04.212Z,18.60
2019-06-20T04:03:04.807Z,18.70
2019-06-20T04:04:04.870Z,18.60
2019-06-20T04:05:04.974Z,18.60
2019-06-20T04:06:04.494Z,18.60
2019-06-20T04:07:04.627Z,18.60
2019-06-20T04:08:04.743Z,18.60
2019-06-20T04:09:04.671Z,18.60
2019-06-20T04:10:04.797Z,18.60
2019-06-20T04:11:04.634Z,18.60
2019-06-20T04:12:04.628Z,18.60
2019-06-20T04:13:04.964Z,18.60
2019-06-20T04:14:05.079Z,18.60
2019-06-20T04:15:17.731Z,18.60
2019-06-20T04:16:05.192Z,18.60
2019-06-20T04:17:04.241Z,18.60
2019-06-20T04:18:04.949Z,18.60
2019-06-20T04:19:05.071Z,18.60
2019-06-20T04:20:04.164Z,18.50
2019-06-20T04:21:04.845Z,18.50
2019-06-20T04:22:04.966Z,18.50
2019-06-20T04:23:04.292Z,18.50
2019-06-20T04:24:04.475Z,18.50
2019-06-20T04:25:05.199Z,18.50
2019-06-20T04:26:04.377Z,18.60
2019-06-20T04:27:04.725Z,18.60
2019-06-20T04:28:04.702Z,18.60
2019-06-20T04:29:04.268Z,18.60
2019-06-20T04:30:04.341Z,18.60
2019-06-20T04:31:04.508Z,18.70
2019-06-20T04:32:05.110Z,18.70
2019-06-20T04:33:04.388Z,18.70
2019-06-20T04:34:04.719Z,18.70
2019-06-20T04:35:04.562Z,18.70
2019-06-20T04:36:04.738Z,18.70
2019-06-20T04:37:05.133Z,18.70
2019-06-20T04:38:04.474Z,18.80
2019-06-20T04:39:18.305Z,18.80
2019-06-20T04:40:04.317Z,18.80
2019-06-20T04:41:04.915Z,18.80
2019-06-20T04:42:05.083Z,18.80
2019-06-20T04:43:04.237Z,18.90
2019-06-20T04:44:05.050Z,18.90
2019-06-20T04:45:04.864Z,18.90
2019-06-20T04:46:04.869Z,18.90
2019-06-20T04:47:05.069Z,19.00
2019-06-20T04:48:04.420Z,19.00
2019-06-20T04:49:04.472Z,19.00
2019-06-20T04:50:05.089Z,19.00
2019-06-20T04:51:04.210Z,19.10
2019-06-20T04:52:05.239Z,19.10
2019-06-20T04:53:04.362Z,19.10
2019-06-20T04:54:04.983Z,19.20
2019-06-20T04:55:04.415Z,19.20
2019-06-20T04:56:05.831Z,19.20
2019-06-20T04:57:04.838Z,19.20
2019-06-20T04:58:04.266Z,19.30
2019-06-20T04:59:05.117Z,19.30
2019-06-20T05:00:04.597Z,19.30
2019-06-20T05:01:04.912Z,19.40
2019-06-20T05:02:04.566Z,19.40
2019-06-20T05:03:05.250Z,19.40
2019-06-20T05:04:04.502Z,19.40
2019-06-20T05:05:04.612Z,19.50
2019-06-20T05:06:05.118Z,19.50
2019-06-20T05:07:04.519Z,19.50
2019-06-20T05:08:04.633Z,19.50
2019-06-20T05:09:05.285Z,19.50
2019-06-20T05:10:04.532Z,19.60
2019-06-20T05:11:04.643Z,19.60
2019-06-20T05:12:04.886Z,19.60
2019-06-20T05:13:05.450Z,19.50
2019-06-20T05:14:05.318Z,19.50
2019-06-20T05:15:04.308Z,19.50
2019-06-20T05:16:04.807Z,19.50
2019-06-20T05:17:07.206Z,19.50
2019-06-20T05:18:04.341Z,19.50
2019-06-20T05:19:04.410Z,19.50
2019-06-20T05:20:04.769Z,19.50
2019-06-20T05:21:05.401Z,19.50
2019-06-20T05:22:04.325Z,19.50
2019-06-20T05:23:04.917Z,19.50
2019-06-20T05:24:04.912Z,19.50
2019-06-20T05:25:04.464Z,19.50
2019-06-20T05:26:04.589Z,19.60
2019-06-20T05:27:04.475Z,19.60
2019-06-20T05:28:04.593Z,19.60
2019-06-20T05:29:05.529Z,19.60
2019-06-20T05:30:04.238Z,19.60
2019-06-20T05:31:04.543Z,19.70
2019-06-20T05:32:04.314Z,19.70
2019-06-20T05:33:04.579Z,19.70
2019-06-20T05:34:04.667Z,19.80
2019-06-20T05:35:04.197Z,19.80
2019-06-20T05:36:04.663Z,19.80
2019-06-20T05:37:05.180Z,19.90
2019-06-20T05:38:05.246Z,19.90
2019-06-20T05:39:04.706Z,19.90
2019-06-20T05:40:05.439Z,20.00
2019-06-20T05:41:04.678Z,20.00
2019-06-20T05:42:05.039Z,20.00
2019-06-20T05:43:04.573Z,20.10
2019-06-20T05:44:04.319Z,20.10
2019-06-20T05:45:04.944Z,20.20
2019-06-20T05:46:09.195Z,20.20
2019-06-20T05:47:12.184Z,20.20
2019-06-20T05:48:04.608Z,20.30
2019-06-20T05:49:04.306Z,20.30
2019-06-20T05:50:05.039Z,20.30
2019-06-20T05:51:05.172Z,20.30
2019-06-20T05:52:05.204Z,20.30
2019-06-20T05:53:04.223Z,20.40
2019-06-20T05:54:04.889Z,20.40
2019-06-20T05:55:10.205Z,20.40
2019-06-20T05:56:04.747Z,20.50
2019-06-20T05:57:04.844Z,20.50
2019-06-20T05:58:05.014Z,20.60
2019-06-20T05:59:04.502Z,20.60
2019-06-20T06:00:04.939Z,20.70
2019-06-20T06:01:04.587Z,20.70
2019-06-20T06:02:05.205Z,20.80
2019-06-20T06:03:06.926Z,20.90
2019-06-20T06:04:05.087Z,20.90
2019-06-20T06:05:04.238Z,21.00
2019-06-20T06:06:04.606Z,21.10
2019-06-20T06:07:05.149Z,21.10
2019-06-20T06:08:05.078Z,21.20
2019-06-20T06:09:04.266Z,21.30
2019-06-20T06:10:05.553Z,21.40
2019-06-20T06:11:04.237Z,21.40
2019-06-20T06:12:04.567Z,21.50
2019-06-20T06:13:04.823Z,21.50
2019-06-20T06:14:04.319Z,21.60
2019-06-20T06:15:04.677Z,21.60
2019-06-20T06:16:04.177Z,21.70
2019-06-20T06:17:04.928Z,21.70
2019-06-20T06:18:04.556Z,21.80
2019-06-20T06:19:05.317Z,21.90
2019-06-20T06:20:04.401Z,22.00
2019-06-20T06:21:04.729Z,22.20
2019-06-20T06:22:04.945Z,22.30
2019-06-20T06:23:04.620Z,22.50
2019-06-20T06:24:05.058Z,22.60
2019-06-20T06:25:04.729Z,22.70
2019-06-20T06:26:04.884Z,22.90
2019-06-20T06:27:04.735Z,23.00
2019-06-20T06:28:05.031Z,23.10
2019-06-20T06:29:04.297Z,23.30
2019-06-20T06:30:04.560Z,23.40
2019-06-20T06:31:05.069Z,23.40
2019-06-20T06:32:04.669Z,23.50
2019-06-20T06:33:04.843Z,23.60
2019-06-20T06:34:04.799Z,23.70
2019-06-20T06:35:04.949Z,23.80
2019-06-20T06:36:04.437Z,23.90
2019-06-20T06:37:04.849Z,24.10
2019-06-20T06:38:05.070Z,24.20
2019-06-20T06:39:04.689Z,24.30
2019-06-20T06:40:05.001Z,24.40
2019-06-20T06:41:04.911Z,24.50
2019-06-20T06:42:04.447Z,24.60
2019-06-20T06:43:04.565Z,24.60
2019-06-20T06:44:06.364Z,24.60
2019-06-20T06:45:04.571Z,24.70
2019-06-20T06:46:04.340Z,24.80
2019-06-20T06:47:04.828Z,24.80
2019-06-20T06:48:05.007Z,24.90
2019-06-20T06:49:04.562Z,24.90
2019-06-20T06:50:04.714Z,25.00
2019-06-20T06:51:05.083Z,25.10
2019-06-20T06:52:05.206Z,25.20
2019-06-20T06:53:04.656Z,25.30
2019-06-20T06:54:04.413Z,25.40
2019-06-20T06:55:04.905Z,25.40
2019-06-20T06:56:04.849Z,25.50
2019-06-20T06:57:04.976Z,25.60
2019-06-20T06:58:07.608Z,25.70
2019-06-20T06:59:05.058Z,25.80
2019-06-20T07:00:04.346Z,25.90
2019-06-20T07:01:05.008Z,25.90
2019-06-20T07:02:04.561Z,26.00
2019-06-20T07:03:04.917Z,26.00
2019-06-20T07:04:04.386Z,26.10
2019-06-20T07:05:04.725Z,26.10
2019-06-20T07:06:04.891Z,26.20
2019-06-20T07:07:04.288Z,26.20
2019-06-20T07:08:04.588Z,26.30
2019-06-20T07:09:04.790Z,26.40
2019-06-20T07:10:04.976Z,26.40
2019-06-20T07:11:04.435Z,26.50
2019-06-20T07:12:04.711Z,26.60
2019-06-20T07:13:04.427Z,26.60
2019-06-20T07:14:04.538Z,26.60
2019-06-20T07:15:04.815Z,26.70
2019-06-20T07:16:04.329Z,26.70
2019-06-20T07:17:04.568Z,26.70
2019-06-20T07:18:04.796Z,26.70
2019-06-20T07:19:04.367Z,26.70
2019-06-20T07:20:04.711Z,26.70
2019-06-20T07:21:04.992Z,26.70
2019-06-20T07:22:04.500Z,26.70
2019-06-20T07:23:04.635Z,26.70
2019-06-20T07:24:04.664Z,26.70
2019-06-20T07:25:04.849Z,26.80
2019-06-20T07:26:05.024Z,26.80
2019-06-20T07:27:04.250Z,26.80
2019-06-20T07:28:04.749Z,26.80
2019-06-20T07:29:04.494Z,26.90
2019-06-20T07:30:05.071Z,26.90
2019-06-20T07:31:04.379Z,26.90
2019-06-20T07:32:05.011Z,26.90
2019-06-20T07:33:04.471Z,26.90
2019-06-20T07:34:04.706Z,26.90
2019-06-20T07:35:04.875Z,26.90
2019-06-20T07:36:04.663Z,26.80
2019-06-20T07:37:05.086Z,26.80
2019-06-20T07:38:04.554Z,26.80
2019-06-20T07:39:05.220Z,26.80
2019-06-20T07:40:04.522Z,26.80
2019-06-20T07:41:04.836Z,26.80
2019-06-20T07:42:05.326Z,26.90
2019-06-20T07:43:04.396Z,26.90
2019-06-20T07:44:04.891Z,26.90
2019-06-20T07:45:05.035Z,26.90
2019-06-20T07:46:04.833Z,27.00
2019-06-20T07:47:16.910Z,27.00
2019-06-20T07:48:04.805Z,27.00
2019-06-20T07:49:04.921Z,27.10
2019-06-20T07:50:05.087Z,27.10
2019-06-20T07:51:04.333Z,27.10
2019-06-20T07:52:04.629Z,27.20
2019-06-20T07:53:05.160Z,27.20
2019-06-20T07:54:04.876Z,27.20
2019-06-20T07:55:04.338Z,27.20
2019-06-20T07:56:04.956Z,27.20
2019-06-20T07:57:04.732Z,27.10
2019-06-20T07:58:04.276Z,27.10
2019-06-20T07:59:04.761Z,27.10
2019-06-20T08:00:05.368Z,27.10
2019-06-20T08:01:04.324Z,27.10
2019-06-20T08:02:04.915Z,27.10
2019-06-20T08:03:04.872Z,27.20
2019-06-20T08:04:04.214Z,27.20
2019-06-20T08:05:04.722Z,27.20
2019-06-20T08:06:04.947Z,27.10
2019-06-20T08:07:05.264Z,27.10
2019-06-20T08:08:04.386Z,27.10
2019-06-20T08:09:04.561Z,27.00
2019-06-20T08:10:04.919Z,27.00
2019-06-20T08:11:04.537Z,26.90
2019-06-20T08:12:05.053Z,26.90
2019-06-20T08:13:05.127Z,26.80
2019-06-20T08:14:04.287Z,26.80
2019-06-20T08:15:14.293Z,26.70
2019-06-20T08:16:04.650Z,26.60
2019-06-20T08:17:05.044Z,26.60
2019-06-20T08:18:05.259Z,26.60
2019-06-20T08:19:04.555Z,26.60
2019-06-20T08:20:05.122Z,26.60
2019-06-20T08:21:04.547Z,26.60
2019-06-20T08:22:04.925Z,26.60
2019-06-20T08:23:05.123Z,26.70
2019-06-20T08:24:05.255Z,26.70
2019-06-20T08:25:05.368Z,26.60
2019-06-20T08:26:04.540Z,26.60
2019-06-20T08:27:04.935Z,26.60
2019-06-20T08:28:04.377Z,26.60
2019-06-20T08:29:11.395Z,26.60
2019-06-20T08:30:05.205Z,26.60
2019-06-20T08:31:04.854Z,26.60
2019-06-20T08:32:04.974Z,26.50
2019-06-20T08:33:08.828Z,26.50
2019-06-20T08:34:04.846Z,26.50
2019-06-20T08:35:04.498Z,26.40
2019-06-20T08:36:04.856Z,26.40
2019-06-20T08:37:04.691Z,26.40
2019-06-20T08:38:05.652Z,26.30
2019-06-20T08:39:04.516Z,26.30
2019-06-20T08:40:06.458Z,26.20
2019-06-20T08:41:06.093Z,26.20
2019-06-20T08:42:04.598Z,26.20
2019-06-20T08:43:06.230Z,26.20
2019-06-20T08:44:06.124Z,26.20
2019-06-20T08:45:06.075Z,26.20
2019-06-20T08:46:09.737Z,26.20
2019-06-20T08:47:05.922Z,26.20
2019-06-20T08:48:04.756Z,26.20
2019-06-20T08:49:05.761Z,26.10
2019-06-20T08:50:05.911Z,26.10
2019-06-20T08:51:06.261Z,26.10
2019-06-20T08:52:05.475Z,26.00
2019-06-20T08:53:05.814Z,26.00
2019-06-20T08:54:05.416Z,26.00
2019-06-20T08:55:05.244Z,26.00
2019-06-20T08:56:05.484Z,26.00
2019-06-20T08:57:05.455Z,26.00
2019-06-20T08:58:05.581Z,26.00
2019-06-20T08:59:04.913Z,26.00
2019-06-20T09:03:04.748Z,26.00
2019-06-20T09:04:05.091Z,25.90
2019-06-20T09:05:04.240Z,25.90
2019-06-20T09:06:04.473Z,25.80
2019-06-20T09:09:04.554Z,25.80
2019-06-20T09:10:04.682Z,25.80
2019-06-20T09:11:04.556Z,25.80
2019-06-20T09:12:05.295Z,25.80
2019-06-20T09:13:04.298Z,25.70
2019-06-20T09:14:04.950Z,25.70
2019-06-20T09:15:05.133Z,25.70
2019-06-20T09:16:04.321Z,25.70
2019-06-20T09:17:04.853Z,25.70
2019-06-20T09:18:05.030Z,25.60
2019-06-20T09:19:04.342Z,25.60
2019-06-20T09:20:05.031Z,25.60
2019-06-20T09:21:05.183Z,25.60
2019-06-20T09:22:05.053Z,25.60
2019-06-20T09:23:04.363Z,25.50
2019-06-20T09:24:04.963Z,25.50
2019-06-20T09:25:04.871Z,25.50
2019-06-20T09:26:04.475Z,25.50
2019-06-20T09:27:04.960Z,25.50
2019-06-20T09:28:04.607Z,25.50
2019-06-20T09:29:04.917Z,25.60
2019-06-20T09:30:04.337Z,25.60
2019-06-20T09:31:04.990Z,25.60
2019-06-20T09:32:05.119Z,25.60
2019-06-20T09:33:04.272Z,25.60
2019-06-20T09:34:05.436Z,25.60
2019-06-20T09:35:04.339Z,25.60
2019-06-20T09:36:04.426Z,25.60
2019-06-20T09:37:04.880Z,25.60
2019-06-20T09:38:04.605Z,25.60
2019-06-20T09:39:04.720Z,25.60
2019-06-20T09:40:05.126Z,25.70
2019-06-20T09:41:04.570Z,25.70
2019-06-20T09:42:04.723Z,25.70
2019-06-20T09:43:05.134Z,25.70
2019-06-20T09:44:04.879Z,25.70
2019-06-20T09:45:05.193Z,25.70
2019-06-20T09:46:05.080Z,25.80
2019-06-20T09:47:05.246Z,25.80
2019-06-20T09:48:04.263Z,25.80
2019-06-20T09:49:05.004Z,25.80
2019-06-20T09:50:04.558Z,25.90
2019-06-20T09:51:05.091Z,25.90
2019-06-20T09:52:05.210Z,25.90
2019-06-20T09:53:04.942Z,26.00
2019-06-20T09:54:05.040Z,26.00
2019-06-20T09:55:10.398Z,26.00
2019-06-20T09:56:04.904Z,26.10
2019-06-20T09:57:05.146Z,26.10
2019-06-20T09:58:04.298Z,26.10
2019-06-20T09:59:04.873Z,26.10
2019-06-20T10:00:09.890Z,26.10
2019-06-20T10:01:04.375Z,26.20
2019-06-20T10:02:04.872Z,26.10
2019-06-20T10:03:05.100Z,26.10
2019-06-20T10:04:05.319Z,26.10
2019-06-20T10:05:04.635Z,26.10
2019-06-20T10:06:13.130Z,26.10
2019-06-20T10:07:05.144Z,26.20
2019-06-20T10:08:04.904Z,26.20
2019-06-20T10:09:04.539Z,26.20
2019-06-20T10:10:04.548Z,26.20
2019-06-20T10:11:04.652Z,26.20
2019-06-20T10:12:04.863Z,26.20
2019-06-20T10:13:04.240Z,26.20
2019-06-20T10:14:04.463Z,26.10
2019-06-20T10:15:04.230Z,26.10
2019-06-20T10:16:04.340Z,26.10
2019-06-20T10:17:05.061Z,26.10
2019-06-20T10:18:04.510Z,26.10
2019-06-20T10:19:04.730Z,26.10
2019-06-20T10:20:04.306Z,26.00
2019-06-20T10:21:04.521Z,26.00
2019-06-20T10:22:04.599Z,26.00
2019-06-20T10:23:04.225Z,26.00
2019-06-20T10:24:04.400Z,26.10
2019-06-20T10:25:04.661Z,26.10
2019-06-20T10:26:04.628Z,26.10
2019-06-20T10:27:04.470Z,26.10
2019-06-20T10:28:04.273Z,26.10
2019-06-20T10:29:04.794Z,26.10
2019-06-20T10:30:13.708Z,26.20
2019-06-20T10:31:04.846Z,26.20
2019-06-20T10:32:05.212Z,26.30
2019-06-20T10:33:04.197Z,26.30
2019-06-20T10:34:04.312Z,26.30
2019-06-20T10:35:05.003Z,26.40
2019-06-20T10:36:05.273Z,26.40
2019-06-20T10:37:04.280Z,26.50
2019-06-20T10:38:05.160Z,26.50
2019-06-20T10:39:04.812Z,26.50
2019-06-20T10:40:04.229Z,26.50
2019-06-20T10:41:05.037Z,26.50
2019-06-20T10:42:04.886Z,26.60
2019-06-20T10:43:04.649Z,26.60
2019-06-20T10:44:05.182Z,26.60
2019-06-20T10:45:04.369Z,26.60
2019-06-20T10:46:04.822Z,26.70
2019-06-20T10:47:04.508Z,26.70
2019-06-20T10:48:04.804Z,26.70
2019-06-20T10:49:05.109Z,26.70
2019-06-20T10:50:05.065Z,26.70
2019-06-20T10:51:04.672Z,26.80
2019-06-20T10:52:04.430Z,26.80
2019-06-20T10:53:04.310Z,26.80
2019-06-20T10:54:04.421Z,26.90
2019-06-20T10:55:04.866Z,26.90
2019-06-20T10:56:04.226Z,26.90
2019-06-20T10:57:04.700Z,27.00
2019-06-20T10:58:04.679Z,27.00
2019-06-20T10:59:04.490Z,27.00
2019-06-20T11:00:04.714Z,27.10
2019-06-20T11:01:05.141Z,27.20
2019-06-20T11:02:07.210Z,27.20
2019-06-20T11:03:05.082Z,27.20
2019-06-20T11:04:04.758Z,27.30
2019-06-20T11:05:04.443Z,27.30
2019-06-20T11:06:04.658Z,27.30
2019-06-20T11:07:04.779Z,27.40
2019-06-20T11:08:04.398Z,27.40
2019-06-20T11:09:04.653Z,27.40
2019-06-20T11:10:05.174Z,27.40
2019-06-20T11:11:04.770Z,27.40
2019-06-20T11:12:05.129Z,27.50
2019-06-20T11:13:04.803Z,27.50
2019-06-20T11:14:05.034Z,27.50
2019-06-20T11:15:04.724Z,27.50
2019-06-20T11:16:04.310Z,27.50
2019-06-20T11:17:04.661Z,27.40
2019-06-20T11:18:04.719Z,27.40
2019-06-20T11:19:04.872Z,27.40
2019-06-20T11:20:04.933Z,27.30
2019-06-20T11:21:04.938Z,27.20
2019-06-20T11:22:04.567Z,27.20
2019-06-20T11:23:04.785Z,27.20
2019-06-20T11:24:04.782Z,27.10
2019-06-20T11:25:04.456Z,27.10
2019-06-20T11:26:04.989Z,27.10
2019-06-20T11:27:04.192Z,27.20
2019-06-20T11:28:04.408Z,27.20
2019-06-20T11:29:04.714Z,27.20
2019-06-20T11:30:05.040Z,27.20
2019-06-20T11:31:05.031Z,27.20
2019-06-20T11:32:04.278Z,27.20
2019-06-20T11:33:05.016Z,27.20
2019-06-20T11:34:04.846Z,27.30
2019-06-20T11:35:04.612Z,27.30
2019-06-20T11:36:05.085Z,27.30
2019-06-20T11:37:04.533Z,27.40
2019-06-20T11:38:05.403Z,27.40
2019-06-20T11:39:04.670Z,27.40
2019-06-20T11:40:04.343Z,27.40
2019-06-20T11:41:04.399Z,27.30
2019-06-20T11:42:05.035Z,27.30
2019-06-20T11:43:05.155Z,27.30
2019-06-20T11:44:04.742Z,27.30
2019-06-20T11:45:04.812Z,27.40
2019-06-20T11:46:04.712Z,27.40
2019-06-20T11:47:04.877Z,27.40
2019-06-20T11:48:04.640Z,27.50
2019-06-20T11:49:05.058Z,27.50
2019-06-20T11:50:04.304Z,27.60
2019-06-20T11:51:04.386Z,27.60
2019-06-20T11:52:05.174Z,27.70
2019-06-20T11:53:04.331Z,27.70
2019-06-20T11:54:04.967Z,27.80
2019-06-20T11:55:04.741Z,27.80
2019-06-20T11:56:05.063Z,27.80
2019-06-20T11:57:05.246Z,27.90
2019-06-20T11:58:04.797Z,27.90
2019-06-20T11:59:04.529Z,27.90
2019-06-20T12:00:04.575Z,28.00
2019-06-20T12:01:04.970Z,27.90
2019-06-20T12:02:05.191Z,28.00
2019-06-20T12:03:04.817Z,27.90
2019-06-20T12:04:04.370Z,27.90
2019-06-20T12:05:04.616Z,28.00
2019-06-20T12:06:05.092Z,28.00
2019-06-20T12:07:05.132Z,28.00
2019-06-20T12:08:04.415Z,28.10
2019-06-20T12:09:04.769Z,28.10
2019-06-20T12:10:04.527Z,28.20
2019-06-20T12:11:04.680Z,28.20
2019-06-20T12:12:04.822Z,28.20
2019-06-20T12:13:04.886Z,28.30
2019-06-20T12:14:05.034Z,28.30
2019-06-20T12:15:07.027Z,28.30
2019-06-20T12:16:04.967Z,28.30
2019-06-20T12:17:05.300Z,28.40
2019-06-20T12:18:04.788Z,28.30
2019-06-20T12:19:04.854Z,28.40
2019-06-20T12:20:05.096Z,28.40
2019-06-20T12:21:04.562Z,28.40
2019-06-20T12:22:04.787Z,28.50
2019-06-20T12:23:04.981Z,28.50
2019-06-20T12:24:08.270Z,28.50
2019-06-20T12:25:04.896Z,28.40
2019-06-20T12:26:04.353Z,28.40
2019-06-20T12:27:05.164Z,28.40
2019-06-20T12:28:04.301Z,28.40
2019-06-20T12:29:04.714Z,28.40
2019-06-20T12:30:05.058Z,28.40
2019-06-20T12:31:18.448Z,28.40
2019-06-20T12:32:04.508Z,28.40
2019-06-20T12:33:04.592Z,28.40
2019-06-20T12:34:05.044Z,28.40
2019-06-20T12:35:04.377Z,28.40
2019-06-20T12:36:04.385Z,28.40
2019-06-20T12:37:05.263Z,28.50
2019-06-20T12:38:04.460Z,28.50
2019-06-20T12:39:04.969Z,28.50
2019-06-20T12:40:04.641Z,28.50
2019-06-20T12:41:04.703Z,28.50
2019-06-20T12:42:05.185Z,28.50
2019-06-20T12:43:04.686Z,28.50
2019-06-20T12:44:05.228Z,28.50
2019-06-20T12:45:05.193Z,28.60
2019-06-20T12:46:05.394Z,28.60
2019-06-20T12:47:04.786Z,28.60
2019-06-20T12:48:05.133Z,28.60
2019-06-20T12:49:04.642Z,28.60
2019-06-20T12:50:05.176Z,28.60
2019-06-20T12:51:05.158Z,28.60
2019-06-20T12:52:04.842Z,28.60
2019-06-20T12:53:04.541Z,28.60
2019-06-20T12:54:04.255Z,28.60
2019-06-20T12:55:04.433Z,28.60
2019-06-20T12:56:04.752Z,28.60
2019-06-20T12:57:04.354Z,28.60